Aviation WX

[Source: ADDS]
METAR
KFKL 201456Z AUTO 21016G22KT 10SM SCT050 SCT100 17/12 A3019 RMK AO2 SLP221 6//// T01720122 =
TAF
KFKL 211412Z 2114/2212 23016G23KT P6SM -SHRA OVC035 FM211600 30010KT P6SM OVC015 FM212200 33008KT P6SM -SHRA OVC035 FM220800 06010KT 3SM -FZRAPL OVC008 =